Time;durP1;ratioP1;P1;durP2;ratioP2;P2;SDS_P1;SDS_P2;PMS_P1;PMS_P2;Temp;Humidity;BMP_temperature;BMP_pressure;BME280_temperature;BME280_humidity;BME280_pressure;Samples;Min_cycle;Max_cycle;Signal;HPM_P1;HPM_P2
2022/09/04 00:00:41;;;;;;;15.13;11.63;;;;;;;;;;1926063;74;21208;-82
2022/09/04 00:03:13;;;;;;;13.35;12.03;;;;;;;;;;1913791;74;21137;-81
2022/09/04 00:05:44;;;;;;;13.80;12.03;;;;;;;;;;1895703;76;21091;-81
2022/09/04 00:08:14;;;;;;;18.73;12.58;;;;;;;;;;1926272;74;21139;-82
2022/09/04 00:10:44;;;;;;;13.03;11.75;;;;;;;;;;1908113;74;21263;-82
2022/09/04 00:13:16;;;;;;;13.32;11.97;;;;;;;;;;1901398;74;21154;-82
2022/09/04 00:15:47;;;;;;;13.88;12.28;;;;;;;;;;1912068;73;21228;-83
2022/09/04 00:18:19;;;;;;;13.48;12.13;;;;;;;;;;1864109;76;21154;-82
2022/09/04 00:20:50;;;;;;;14.25;12.78;;;;;;;;;;1872606;76;21628;-82
2022/09/04 00:23:22;;;;;;;14.83;13.20;;;;;;;;;;1872880;76;21147;-84
2022/09/04 00:25:52;;;;;;;15.23;13.62;;;;;;;;;;1882659;75;21119;-83
2022/09/04 00:28:21;;;;;;;17.07;12.85;;;;;;;;;;1875787;76;21224;-83
2022/09/04 00:30:53;;;;;;;16.57;13.55;;;;;;;;;;1875532;76;21123;-81
2022/09/04 00:33:25;;;;;;;15.50;14.00;;;;;;;;;;1877429;75;21155;-81
2022/09/04 00:35:56;;;;;;;15.53;13.80;;;;;;;;;;1877214;76;21166;-81
2022/09/04 00:38:30;;;;;;;16.60;13.50;;;;;;;;;;1877475;76;21146;-82
2022/09/04 00:41:02;;;;;;;15.88;14.20;;;;;;;;;;1895680;75;21119;-82
2022/09/04 00:43:33;;;;;;;16.55;14.85;;;;;;;;;;1886638;75;21138;-83
2022/09/04 00:46:05;;;;;;;16.02;14.33;;;;;;;;;;1876032;75;21099;-82
2022/09/04 00:48:36;;;;;;;18.37;16.42;;;;;;;;;;1874520;75;21133;-82
2022/09/04 00:51:10;;;;;;;17.57;15.75;;;;;;;;;;1870546;75;21080;-82
2022/09/04 00:53:40;;;;;;;18.90;16.90;;;;;;;;;;1873073;75;21130;-83
2022/09/04 00:56:14;;;;;;;19.70;17.27;;;;;;;;;;1878025;75;21115;-83
2022/09/04 00:58:45;;;;;;;20.32;17.32;;;;;;;;;;1864754;76;21119;-82
2022/09/04 01:01:16;;;;;;;18.27;16.37;;;;;;;;;;1873331;76;21137;-83
2022/09/04 01:03:46;;;;;;;18.57;16.67;;;;;;;;;;1875666;75;21214;-83
2022/09/04 01:06:17;;;;;;;16.55;14.93;;;;;;;;;;1890486;76;21196;-84
2022/09/04 01:08:50;;;;;;;18.70;16.90;;;;;;;;;;1870566;76;21200;-83
2022/09/04 01:11:22;;;;;;;19.45;17.37;;;;;;;;;;1877573;75;21159;-84
2022/09/04 01:13:54;;;;;;;18.27;16.48;;;;;;;;;;1875853;76;21171;-85
2022/09/04 01:16:24;;;;;;;18.73;16.73;;;;;;;;;;1874917;75;21626;-83
2022/09/04 01:18:56;;;;;;;19.85;17.20;;;;;;;;;;1886712;75;21186;-86
2022/09/04 01:21:32;;;;;;;19.62;17.27;;;;;;;;;;1875503;76;21127;-84
2022/09/04 01:24:03;;;;;;;19.55;17.40;;;;;;;;;;1869838;76;21486;-83
2022/09/04 01:26:34;;;;;;;18.05;16.17;;;;;;;;;;1879047;75;21142;-83
2022/09/04 01:29:06;;;;;;;19.07;17.05;;;;;;;;;;1878407;76;21115;-83
2022/09/04 01:31:37;;;;;;;18.55;16.75;;;;;;;;;;1872857;76;21083;-82
2022/09/04 01:34:09;;;;;;;20.70;17.00;;;;;;;;;;1883054;76;21134;-84
2022/09/04 01:36:41;;;;;;;20.57;17.60;;;;;;;;;;1873887;76;21213;-84
2022/09/04 01:39:12;;;;;;;20.23;18.17;;;;;;;;;;1873347;75;21100;-84
2022/09/04 01:41:43;;;;;;;31.70;17.77;;;;;;;;;;1868100;76;21142;-83
2022/09/04 01:44:14;;;;;;;18.90;17.10;;;;;;;;;;1873979;76;21107;-82
2022/09/04 01:46:46;;;;;;;19.37;17.30;;;;;;;;;;1885794;76;21158;-83
2022/09/04 01:49:19;;;;;;;19.25;17.30;;;;;;;;;;1884284;75;21127;-83
2022/09/04 01:51:50;;;;;;;20.17;18.10;;;;;;;;;;1875946;76;21166;-82
2022/09/04 01:54:21;;;;;;;20.68;17.15;;;;;;;;;;1884452;75;21127;-84
2022/09/04 01:56:51;;;;;;;20.05;18.05;;;;;;;;;;1867166;75;21594;-83
2022/09/04 01:59:22;;;;;;;20.17;18.00;;;;;;;;;;1869378;76;21123;-81
2022/09/04 02:01:57;;;;;;;20.92;18.57;;;;;;;;;;1884977;76;21158;-83
2022/09/04 02:04:28;;;;;;;18.67;16.97;;;;;;;;;;1875663;75;21096;-83
2022/09/04 02:07:00;;;;;;;20.62;17.35;;;;;;;;;;1879727;76;21580;-84
2022/09/04 02:09:31;;;;;;;20.48;18.37;;;;;;;;;;1874857;75;21228;-82
2022/09/04 02:12:03;;;;;;;19.48;17.10;;;;;;;;;;1865282;75;21203;-83
2022/09/04 02:14:35;;;;;;;19.77;17.87;;;;;;;;;;1865700;75;21175;-82
2022/09/04 02:17:09;;;;;;;19.82;17.85;;;;;;;;;;1858541;76;21602;-84
2022/09/04 02:19:40;;;;;;;20.70;18.45;;;;;;;;;;1872014;76;21771;-83
2022/09/04 02:22:13;;;;;;;21.68;19.37;;;;;;;;;;1840437;76;21448;-83
2022/09/04 02:24:44;;;;;;;20.62;18.52;;;;;;;;;;1848856;77;21151;-83
2022/09/04 02:27:16;;;;;;;20.90;18.70;;;;;;;;;;1865994;74;21107;-82
2022/09/04 02:29:49;;;;;;;22.32;18.27;;;;;;;;;;1871725;76;21293;-85
2022/09/04 02:32:20;;;;;;;19.25;17.37;;;;;;;;;;1865954;76;21634;-71
2022/09/04 02:34:53;;;;;;;19.27;17.35;;;;;;;;;;1867470;76;21206;-71
2022/09/04 02:37:24;;;;;;;20.77;17.73;;;;;;;;;;1870611;76;21178;-71
2022/09/04 02:39:57;;;;;;;20.52;18.40;;;;;;;;;;1866681;74;21425;-72
2022/09/04 02:42:31;;;;;;;20.08;18.00;;;;;;;;;;1868704;76;21210;-72
2022/09/04 02:45:01;;;;;;;20.43;17.75;;;;;;;;;;1850793;75;21190;-73
2022/09/04 02:47:33;;;;;;;18.42;16.48;;;;;;;;;;1831641;77;21129;-73
2022/09/04 02:50:04;;;;;;;19.00;17.10;;;;;;;;;;1869526;76;21079;-72
2022/09/04 02:52:36;;;;;;;19.52;17.52;;;;;;;;;;1874565;74;21143;-72
2022/09/04 02:55:07;;;;;;;19.92;16.70;;;;;;;;;;1845000;77;21209;-72
2022/09/04 02:57:39;;;;;;;18.48;16.42;;;;;;;;;;1865323;76;21182;-73
2022/09/04 03:00:20;;;;;;;18.60;16.60;;;;;;;;;;1863524;76;21204;-73
2022/09/04 03:02:44;;;;;;;19.62;17.67;;;;;;;;;;1869609;74;21193;-72
2022/09/04 03:05:17;;;;;;;17.62;15.90;;;;;;;;;;1869125;76;21654;-71
2022/09/04 03:07:48;;;;;;;17.20;15.60;;;;;;;;;;1868666;76;21099;-72
2022/09/04 03:10:20;;;;;;;18.25;16.35;;;;;;;;;;1874285;75;21174;-71
2022/09/04 03:12:50;;;;;;;17.65;15.83;;;;;;;;;;1872518;76;21116;-73
2022/09/04 03:15:22;;;;;;;16.77;15.08;;;;;;;;;;1869819;75;21169;-72
2022/09/04 03:17:54;;;;;;;17.20;15.45;;;;;;;;;;1856528;76;21627;-72
2022/09/04 03:20:25;;;;;;;17.35;15.55;;;;;;;;;;1878710;75;21206;-72
2022/09/04 03:22:56;;;;;;;16.32;14.75;;;;;;;;;;1883026;76;21592;-73
2022/09/04 03:25:28;;;;;;;16.52;14.83;;;;;;;;;;1871641;76;21140;-73
2022/09/04 03:27:58;;;;;;;15.78;13.98;;;;;;;;;;1878603;76;21169;-73
2022/09/04 03:30:30;;;;;;;15.18;13.68;;;;;;;;;;1851059;77;21156;-73
2022/09/04 03:33:02;;;;;;;17.02;15.32;;;;;;;;;;1836307;77;21094;-72
2022/09/04 03:35:32;;;;;;;16.62;15.00;;;;;;;;;;1856130;76;21162;-72
2022/09/04 03:38:02;;;;;;;17.48;14.80;;;;;;;;;;1848897;77;21225;-73
2022/09/04 03:40:34;;;;;;;15.55;14.03;;;;;;;;;;1885772;76;21136;-73
2022/09/04 03:43:05;;;;;;;15.40;13.83;;;;;;;;;;1876759;76;21240;-72
2022/09/04 03:45:37;;;;;;;16.45;14.80;;;;;;;;;;1879461;75;21153;-73
2022/09/04 03:48:08;;;;;;;16.45;14.85;;;;;;;;;;1869501;75;21164;-73
2022/09/04 03:50:39;;;;;;;16.12;14.38;;;;;;;;;;1881687;76;21224;-73
2022/09/04 03:53:11;;;;;;;15.10;13.48;;;;;;;;;;1911681;74;21064;-73
2022/09/04 03:55:43;;;;;;;16.65;14.87;;;;;;;;;;1924999;73;21124;-74
2022/09/04 03:58:15;;;;;;;16.48;14.87;;;;;;;;;;1875395;75;21143;-74
2022/09/04 04:00:46;;;;;;;16.23;14.63;;;;;;;;;;1837295;77;21168;-72
2022/09/04 04:03:18;;;;;;;15.83;14.13;;;;;;;;;;1843040;77;21184;-72
2022/09/04 04:05:51;;;;;;;15.60;13.75;;;;;;;;;;1846917;75;21230;-73
2022/09/04 04:08:40;;;;;;;15.10;13.62;;;;;;;;;;1825175;76;21107;-73
2022/09/04 04:11:11;;;;;;;16.10;14.43;;;;;;;;;;1908862;75;21107;-71
2022/09/04 04:13:43;;;;;;;15.20;13.68;;;;;;;;;;1922975;73;21041;-73
2022/09/04 04:16:14;;;;;;;15.78;14.28;;;;;;;;;;1904250;73;21100;-72
2022/09/04 04:18:45;;;;;;;14.55;13.08;;;;;;;;;;1914065;74;21966;-73
2022/09/04 04:21:17;;;;;;;14.53;13.03;;;;;;;;;;1920677;73;21099;-73
2022/09/04 04:23:47;;;;;;;14.35;12.93;;;;;;;;;;1907794;74;21481;-73
2022/09/04 04:26:20;;;;;;;16.77;13.10;;;;;;;;;;1923260;74;21049;-74
2022/09/04 04:28:57;;;;;;;15.45;13.70;;;;;;;;;;1940619;73;21213;-74
2022/09/04 04:31:24;;;;;;;15.25;13.65;;;;;;;;;;1849780;75;21252;-72
2022/09/04 04:33:56;;;;;;;15.40;13.90;;;;;;;;;;1870359;75;21273;-72
2022/09/04 04:36:26;;;;;;;16.48;13.75;;;;;;;;;;1885261;75;21217;-72
2022/09/04 04:38:58;;;;;;;17.02;13.28;;;;;;;;;;1881421;75;21215;-72
2022/09/04 04:41:29;;;;;;;14.25;12.75;;;;;;;;;;1886953;75;21638;-72
2022/09/04 04:44:01;;;;;;;13.98;12.63;;;;;;;;;;1873896;75;21159;-73
2022/09/04 04:46:33;;;;;;;14.33;12.93;;;;;;;;;;1870355;75;21185;-72
2022/09/04 04:49:06;;;;;;;14.10;12.70;;;;;;;;;;1849207;76;21148;-72
2022/09/04 04:51:39;;;;;;;18.17;12.75;;;;;;;;;;1835254;78;21153;-72
2022/09/04 04:54:12;;;;;;;14.85;12.95;;;;;;;;;;1837360;77;21162;-72
2022/09/04 04:56:44;;;;;;;15.70;13.60;;;;;;;;;;1832695;78;21150;-72
2022/09/04 04:59:19;;;;;;;15.43;13.83;;;;;;;;;;1836698;77;21189;-73
2022/09/04 05:01:51;;;;;;;15.65;14.05;;;;;;;;;;1830021;77;21193;-72
2022/09/04 05:04:23;;;;;;;13.93;12.37;;;;;;;;;;1835688;77;21131;-72
2022/09/04 05:06:57;;;;;;;13.95;12.65;;;;;;;;;;1879064;75;21194;-72
2022/09/04 05:09:28;;;;;;;12.73;11.43;;;;;;;;;;1869862;76;21174;-72
2022/09/04 05:11:59;;;;;;;13.55;12.15;;;;;;;;;;1896748;74;21166;-73
2022/09/04 05:14:31;;;;;;;14.23;12.70;;;;;;;;;;1918642;73;21119;-72
2022/09/04 05:17:02;;;;;;;12.85;11.38;;;;;;;;;;1910158;73;21123;-72
2022/09/04 05:19:34;;;;;;;13.93;12.53;;;;;;;;;;1911222;72;21155;-73
2022/09/04 05:22:05;;;;;;;13.10;11.80;;;;;;;;;;1844232;76;21233;-72
2022/09/04 05:24:37;;;;;;;13.13;11.75;;;;;;;;;;1882937;75;21187;-74
2022/09/04 05:27:08;;;;;;;13.90;12.53;;;;;;;;;;1854223;76;21155;-74
2022/09/04 05:29:38;;;;;;;13.22;11.93;;;;;;;;;;1875141;75;21150;-72
2022/09/04 05:32:10;;;;;;;13.18;11.88;;;;;;;;;;1878584;75;21128;-73
2022/09/04 05:34:41;;;;;;;12.88;11.53;;;;;;;;;;1863351;75;21111;-73
2022/09/04 05:37:13;;;;;;;13.15;11.83;;;;;;;;;;1872753;75;21178;-73
2022/09/04 05:39:45;;;;;;;14.30;12.70;;;;;;;;;;1878785;75;21170;-73
2022/09/04 05:42:17;;;;;;;14.83;12.58;;;;;;;;;;1837633;77;21247;-74
2022/09/04 05:44:49;;;;;;;15.72;13.53;;;;;;;;;;1844889;76;21102;-72
2022/09/04 05:47:20;;;;;;;17.37;13.60;;;;;;;;;;1844675;76;21189;-72
2022/09/04 05:49:53;;;;;;;14.53;12.98;;;;;;;;;;1859881;76;21128;-73
2022/09/04 05:52:25;;;;;;;14.25;12.78;;;;;;;;;;1851495;75;21130;-72
2022/09/04 05:54:57;;;;;;;15.28;13.80;;;;;;;;;;1851710;75;21098;-73
2022/09/04 05:57:27;;;;;;;14.85;12.33;;;;;;;;;;1860018;76;21145;-73
2022/09/04 05:59:58;;;;;;;14.40;12.90;;;;;;;;;;1825363;76;21626;-73
2022/09/04 06:02:30;;;;;;;16.25;13.43;;;;;;;;;;1858838;76;21086;-73
2022/09/04 06:05:02;;;;;;;17.60;15.90;;;;;;;;;;1838311;76;21129;-72
2022/09/04 06:07:33;;;;;;;16.57;14.90;;;;;;;;;;1856330;76;21178;-72
2022/09/04 06:10:05;;;;;;;15.93;14.18;;;;;;;;;;1851279;75;21153;-73
2022/09/04 06:12:35;;;;;;;18.67;15.90;;;;;;;;;;1869181;76;21544;-73
2022/09/04 06:15:07;;;;;;;17.80;16.00;;;;;;;;;;1862650;75;21210;-72
2022/09/04 06:17:38;;;;;;;17.40;15.70;;;;;;;;;;1872780;75;21132;-73
2022/09/04 06:20:10;;;;;;;18.25;16.52;;;;;;;;;;1864440;75;21265;-73
2022/09/04 06:22:42;;;;;;;17.55;15.30;;;;;;;;;;1872837;75;21657;-73
2022/09/04 06:25:14;;;;;;;17.00;15.10;;;;;;;;;;1871661;75;21076;-73
2022/09/04 06:27:47;;;;;;;20.10;15.72;;;;;;;;;;1873686;76;21201;-73
2022/09/04 06:30:18;;;;;;;17.60;15.90;;;;;;;;;;1866512;75;21226;-73
2022/09/04 06:32:48;;;;;;;17.17;15.58;;;;;;;;;;1864666;75;21155;-73
2022/09/04 06:35:21;;;;;;;17.52;15.08;;;;;;;;;;1877559;75;21286;-72
2022/09/04 06:37:53;;;;;;;16.62;14.93;;;;;;;;;;1875934;75;21564;-73
2022/09/04 06:40:24;;;;;;;16.35;14.75;;;;;;;;;;1879999;75;21251;-73
2022/09/04 06:42:56;;;;;;;16.20;14.63;;;;;;;;;;1866503;75;21144;-71
2022/09/04 06:45:27;;;;;;;14.58;13.08;;;;;;;;;;1878861;74;21828;-73
2022/09/04 06:47:59;;;;;;;16.40;14.90;;;;;;;;;;1852722;76;21199;-73
2022/09/04 06:50:29;;;;;;;15.25;13.75;;;;;;;;;;1870491;75;21123;-73
2022/09/04 06:53:02;;;;;;;15.55;13.90;;;;;;;;;;1871377;75;21148;-74
2022/09/04 06:55:34;;;;;;;16.27;13.95;;;;;;;;;;1871564;75;21248;-74
2022/09/04 06:58:09;;;;;;;15.35;13.05;;;;;;;;;;1870808;75;21576;-73
2022/09/04 07:00:41;;;;;;;14.07;12.78;;;;;;;;;;1856307;75;21643;-72
2022/09/04 07:03:12;;;;;;;14.93;13.43;;;;;;;;;;1858878;77;21160;-74
2022/09/04 07:05:43;;;;;;;14.70;12.93;;;;;;;;;;1860302;77;21845;-73
2022/09/04 07:08:15;;;;;;;14.35;12.80;;;;;;;;;;1865569;76;21042;-73
2022/09/04 07:10:47;;;;;;;14.73;13.22;;;;;;;;;;1882432;75;21221;-73
2022/09/04 07:13:22;;;;;;;16.00;13.10;;;;;;;;;;1868146;75;21204;-74
2022/09/04 07:15:55;;;;;;;15.38;13.78;;;;;;;;;;1872914;76;21774;-74
2022/09/04 07:18:25;;;;;;;14.20;12.88;;;;;;;;;;1865286;76;21259;-73
2022/09/04 07:20:57;;;;;;;15.25;13.72;;;;;;;;;;1877978;76;21206;-73
2022/09/04 07:23:27;;;;;;;15.68;13.85;;;;;;;;;;1853061;76;21148;-74
2022/09/04 07:25:59;;;;;;;18.05;13.30;;;;;;;;;;1866173;76;21211;-74
2022/09/04 07:28:30;;;;;;;15.72;14.05;;;;;;;;;;1877600;74;21082;-74
2022/09/04 07:33:56;;;;;;;15.00;13.50;;;;;;;;;;1893553;74;21232;-73
2022/09/04 07:36:30;;;;;;;15.13;13.72;;;;;;;;;;1901756;74;21127;-72
2022/09/04 07:39:01;;;;;;;16.37;14.68;;;;;;;;;;1883634;76;21627;-72
2022/09/04 07:41:31;;;;;;;15.23;13.75;;;;;;;;;;1886056;74;21681;-72
2022/09/04 07:44:02;;;;;;;14.60;13.10;;;;;;;;;;1885614;74;21088;-73
2022/09/04 07:46:33;;;;;;;15.58;13.93;;;;;;;;;;1892977;74;21126;-73
2022/09/04 07:49:08;;;;;;;14.53;13.13;;;;;;;;;;1881254;74;21181;-72
2022/09/04 07:51:37;;;;;;;15.05;13.45;;;;;;;;;;1888854;74;21083;-72
2022/09/04 07:54:10;;;;;;;14.63;13.13;;;;;;;;;;1908698;74;21137;-72
2022/09/04 07:56:41;;;;;;;14.93;13.43;;;;;;;;;;1905284;74;21173;-72
2022/09/04 07:59:13;;;;;;;14.30;12.88;;;;;;;;;;1893452;75;21165;-72
2022/09/04 08:01:45;;;;;;;13.80;12.60;;;;;;;;;;1890202;74;21676;-73
2022/09/04 08:04:16;;;;;;;14.60;12.73;;;;;;;;;;1882380;75;21165;-73
2022/09/04 08:06:48;;;;;;;14.65;13.13;;;;;;;;;;1897837;74;21610;-73
2022/09/04 08:09:20;;;;;;;14.45;12.95;;;;;;;;;;1896697;74;21216;-74
2022/09/04 08:11:51;;;;;;;14.05;12.63;;;;;;;;;;1892949;75;21661;-73
2022/09/04 08:14:23;;;;;;;14.30;12.90;;;;;;;;;;1897658;74;21189;-73
2022/09/04 08:16:55;;;;;;;14.03;12.63;;;;;;;;;;1911922;74;21121;-73
2022/09/04 08:19:26;;;;;;;14.30;12.78;;;;;;;;;;1914057;74;21164;-72
2022/09/04 08:21:57;;;;;;;14.10;12.70;;;;;;;;;;1919880;74;21126;-73
2022/09/04 08:24:27;;;;;;;13.45;11.85;;;;;;;;;;1910269;74;21133;-73
2022/09/04 08:26:58;;;;;;;13.75;12.35;;;;;;;;;;1916079;74;21628;-73
2022/09/04 08:29:30;;;;;;;13.88;12.37;;;;;;;;;;1923708;74;21157;-73
2022/09/04 08:32:02;;;;;;;16.52;12.90;;;;;;;;;;1906713;74;21756;-72
2022/09/04 08:34:33;;;;;;;14.47;12.03;;;;;;;;;;1930733;74;21088;-73
2022/09/04 08:37:04;;;;;;;13.48;12.23;;;;;;;;;;1918151;74;21150;-72
2022/09/04 08:39:36;;;;;;;12.82;11.63;;;;;;;;;;1918317;74;21515;-72
2022/09/04 08:42:08;;;;;;;11.60;10.45;;;;;;;;;;1896329;74;21127;-73
2022/09/04 08:44:39;;;;;;;12.20;10.70;;;;;;;;;;1852691;76;21126;-73
2022/09/04 08:47:11;;;;;;;12.18;10.98;;;;;;;;;;1891811;74;21562;-72
2022/09/04 08:49:43;;;;;;;15.50;11.12;;;;;;;;;;1845966;76;21177;-73
2022/09/04 08:52:17;;;;;;;12.40;11.20;;;;;;;;;;1858711;76;21134;-73
2022/09/04 08:54:48;;;;;;;12.37;10.55;;;;;;;;;;1859181;76;21192;-74
2022/09/04 08:57:19;;;;;;;12.65;11.08;;;;;;;;;;1868314;75;21262;-73
2022/09/04 08:59:51;;;;;;;13.00;10.48;;;;;;;;;;1876898;75;21183;-72
2022/09/04 09:02:22;;;;;;;11.65;10.45;;;;;;;;;;1858507;76;21143;-73
2022/09/04 09:04:53;;;;;;;10.60;9.60;;;;;;;;;;1851621;75;21083;-73
2022/09/04 09:07:24;;;;;;;11.60;10.13;;;;;;;;;;1859938;76;21177;-73
2022/09/04 09:09:55;;;;;;;11.50;10.48;;;;;;;;;;1856788;76;21232;-72
2022/09/04 09:12:27;;;;;;;11.78;10.58;;;;;;;;;;1860400;76;21146;-72
2022/09/04 09:14:59;;;;;;;11.18;10.08;;;;;;;;;;1856021;76;21064;-72
2022/09/04 09:17:31;;;;;;;11.88;10.18;;;;;;;;;;1899745;74;21160;-73
2022/09/04 09:20:03;;;;;;;13.03;10.30;;;;;;;;;;1875079;75;21086;-73
2022/09/04 09:22:36;;;;;;;10.75;8.58;;;;;;;;;;1847745;76;21136;-73
2022/09/04 09:25:06;;;;;;;10.43;8.43;;;;;;;;;;1855300;76;21170;-73
2022/09/04 09:27:38;;;;;;;9.23;6.95;;;;;;;;;;1885539;75;21149;-73
2022/09/04 09:30:09;;;;;;;8.98;7.53;;;;;;;;;;1887007;74;21076;-73
2022/09/04 09:32:41;;;;;;;8.33;6.62;;;;;;;;;;1902301;74;21224;-72
2022/09/04 09:35:14;;;;;;;9.20;6.83;;;;;;;;;;1895312;74;21638;-72
2022/09/04 09:37:45;;;;;;;10.08;6.25;;;;;;;;;;1888979;74;21174;-73
2022/09/04 09:40:20;;;;;;;7.92;6.03;;;;;;;;;;1899148;74;21140;-73
2022/09/04 09:42:52;;;;;;;8.80;6.08;;;;;;;;;;1894547;74;21654;-72
2022/09/04 09:45:24;;;;;;;8.73;5.97;;;;;;;;;;1908654;74;21140;-72
2022/09/04 09:47:55;;;;;;;7.20;6.33;;;;;;;;;;1880337;75;21190;-73
2022/09/04 09:50:27;;;;;;;7.80;6.05;;;;;;;;;;1881205;75;21186;-73
2022/09/04 09:52:58;;;;;;;7.35;6.05;;;;;;;;;;1883522;75;21216;-73
2022/09/04 09:55:29;;;;;;;7.67;6.00;;;;;;;;;;1881751;75;21079;-73
2022/09/04 09:58:00;;;;;;;9.48;5.75;;;;;;;;;;1825334;77;21271;-73
2022/09/04 10:00:35;;;;;;;11.70;5.95;;;;;;;;;;1833105;77;21174;-73
2022/09/04 10:03:05;;;;;;;6.87;5.35;;;;;;;;;;1850792;76;21179;-73
2022/09/04 10:05:38;;;;;;;7.78;5.80;;;;;;;;;;1845022;76;21237;-73
2022/09/04 10:08:09;;;;;;;7.45;5.58;;;;;;;;;;1845958;76;21286;-72
2022/09/04 10:10:41;;;;;;;6.17;5.45;;;;;;;;;;1854961;76;21158;-72
2022/09/04 10:13:14;;;;;;;6.40;4.95;;;;;;;;;;1865496;75;21197;-72
2022/09/04 10:15:47;;;;;;;6.50;4.60;;;;;;;;;;1840290;77;21080;-72
2022/09/04 10:18:18;;;;;;;6.50;4.80;;;;;;;;;;1838399;77;21094;-71
2022/09/04 10:20:48;;;;;;;6.50;5.28;;;;;;;;;;1863077;75;21631;-72
2022/09/04 10:23:18;;;;;;;48.25;33.42;;;;;;;;;;1899318;74;21120;-72
2022/09/04 10:25:50;;;;;;;26.40;19.20;;;;;;;;;;1864697;76;21265;-72
2022/09/04 10:28:21;;;;;;;13.88;9.20;;;;;;;;;;1891459;74;21227;-72
2022/09/04 10:30:53;;;;;;;10.48;7.58;;;;;;;;;;1897248;74;21154;-73
2022/09/04 10:33:25;;;;;;;9.25;6.65;;;;;;;;;;1829942;77;21178;-73
2022/09/04 10:35:57;;;;;;;9.25;6.30;;;;;;;;;;1842050;76;21767;-73
2022/09/04 10:38:29;;;;;;;9.03;6.10;;;;;;;;;;1834319;78;21162;-73
2022/09/04 10:41:00;;;;;;;8.68;6.42;;;;;;;;;;1836405;77;21557;-73
2022/09/04 10:43:32;;;;;;;10.05;6.53;;;;;;;;;;1866983;77;21118;-73
2022/09/04 10:46:05;;;;;;;12.82;6.28;;;;;;;;;;1826031;78;21229;-71
2022/09/04 10:48:37;;;;;;;8.63;5.62;;;;;;;;;;1834601;77;21614;-72
2022/09/04 10:51:08;;;;;;;7.75;5.72;;;;;;;;;;1831895;78;21089;-72
2022/09/04 10:53:40;;;;;;;9.68;6.10;;;;;;;;;;1834812;78;21164;-72
2022/09/04 10:56:15;;;;;;;7.33;5.97;;;;;;;;;;1845198;78;21176;-73
2022/09/04 10:58:45;;;;;;;8.05;6.42;;;;;;;;;;1845665;77;21267;-77
2022/09/04 11:01:18;;;;;;;9.58;6.78;;;;;;;;;;1833585;78;21192;-73
2022/09/04 11:03:50;;;;;;;10.80;7.12;;;;;;;;;;1895576;74;21147;-73
2022/09/04 11:06:25;;;;;;;8.80;7.08;;;;;;;;;;1906626;74;21184;-73
2022/09/04 11:08:53;;;;;;;10.50;8.05;;;;;;;;;;1891982;76;21673;-73
2022/09/04 11:11:24;;;;;;;7.75;6.80;;;;;;;;;;1880322;76;21228;-73
2022/09/04 11:13:56;;;;;;;11.28;6.22;;;;;;;;;;1862474;76;21292;-72
2022/09/04 11:16:26;;;;;;;10.13;6.97;;;;;;;;;;1881260;76;21171;-72
2022/09/04 11:18:58;;;;;;;11.80;7.60;;;;;;;;;;1836776;77;21178;-72
2022/09/04 11:21:29;;;;;;;9.20;6.70;;;;;;;;;;1846556;77;21095;-73
2022/09/04 11:24:01;;;;;;;7.33;5.42;;;;;;;;;;1853815;76;21136;-72
2022/09/04 11:26:36;;;;;;;6.37;4.83;;;;;;;;;;1862662;76;21553;-72
2022/09/04 11:29:09;;;;;;;6.20;4.90;;;;;;;;;;1857065;76;21671;-72
2022/09/04 11:31:38;;;;;;;7.12;4.85;;;;;;;;;;1861932;76;21124;-72
2022/09/04 11:34:12;;;;;;;6.97;4.17;;;;;;;;;;1873140;76;21172;-72
2022/09/04 11:36:44;;;;;;;5.33;4.53;;;;;;;;;;1873935;76;21212;-73
2022/09/04 11:39:16;;;;;;;7.53;4.60;;;;;;;;;;1876593;76;21124;-73
2022/09/04 11:41:47;;;;;;;6.22;4.50;;;;;;;;;;1856474;76;21089;-73
2022/09/04 11:44:21;;;;;;;5.55;4.03;;;;;;;;;;1859636;76;21159;-72
2022/09/04 11:46:58;;;;;;;5.37;4.45;;;;;;;;;;1860416;77;21560;-84
2022/09/04 11:49:28;;;;;;;6.33;4.70;;;;;;;;;;1857739;76;21210;-84
2022/09/04 11:51:59;;;;;;;6.00;4.80;;;;;;;;;;1862346;77;21112;-85
2022/09/04 11:54:30;;;;;;;6.65;4.85;;;;;;;;;;1868435;76;21363;-84
2022/09/04 11:57:02;;;;;;;6.78;5.05;;;;;;;;;;1853443;76;21154;-84
2022/09/04 11:59:35;;;;;;;6.05;4.80;;;;;;;;;;1863678;74;21122;-84
2022/09/04 12:02:07;;;;;;;7.15;4.53;;;;;;;;;;1878207;74;21235;-85
2022/09/04 12:04:48;;;;;;;8.30;6.65;;;;;;;;;;1868949;76;21155;-85
2022/09/04 12:07:39;;;;;;;8.53;5.92;;;;;;;;;;1856170;75;21087;-84
2022/09/04 12:10:13;;;;;;;7.20;5.15;;;;;;;;;;1898178;72;21124;-84
2022/09/04 12:12:45;;;;;;;6.72;4.70;;;;;;;;;;1915009;74;21144;-84
2022/09/04 12:15:21;;;;;;;7.83;5.72;;;;;;;;;;1898442;72;21229;-85
2022/09/04 12:17:56;;;;;;;6.20;4.90;;;;;;;;;;1858319;76;21119;-85
2022/09/04 12:20:46;;;;;;;6.40;5.00;;;;;;;;;;1867741;76;21228;-85
2022/09/04 12:23:18;;;;;;;6.78;4.20;;;;;;;;;;1867177;75;21143;-86
2022/09/04 12:25:54;;;;;;;6.50;4.15;;;;;;;;;;1863289;76;21068;-85
2022/09/04 12:28:32;;;;;;;6.60;4.42;;;;;;;;;;1860427;76;21174;-84
2022/09/04 12:31:22;;;;;;;5.55;4.17;;;;;;;;;;1783762;77;21321;-85
2022/09/04 12:33:56;;;;;;;6.47;4.20;;;;;;;;;;1809137;78;21197;-86
2022/09/04 12:36:28;;;;;;;5.53;4.40;;;;;;;;;;1813371;77;21602;-84
2022/09/04 12:39:07;;;;;;;6.47;4.15;;;;;;;;;;1805646;76;21123;-84
2022/09/04 12:42:00;;;;;;;7.22;4.50;;;;;;;;;;1808934;78;21212;-85
2022/09/04 12:44:49;;;;;;;5.85;4.60;;;;;;;;;;1808627;78;21255;-84
2022/09/04 12:47:22;;;;;;;6.17;4.95;;;;;;;;;;1787173;79;21118;-84
2022/09/04 12:49:57;;;;;;;8.88;5.47;;;;;;;;;;1792804;79;21558;-84
2022/09/04 12:52:27;;;;;;;7.12;4.90;;;;;;;;;;1786109;79;21240;-86
2022/09/04 12:55:21;;;;;;;6.87;4.67;;;;;;;;;;1789109;79;21161;-84
2022/09/04 12:57:57;;;;;;;5.75;4.72;;;;;;;;;;1781882;78;21216;-84
2022/09/04 13:00:39;;;;;;;9.08;5.65;;;;;;;;;;1758273;81;21244;-84
2022/09/04 13:05:53;;;;;;;8.05;5.90;;;;;;;;;;1884103;76;21096;-84
2022/09/04 13:08:25;;;;;;;8.38;5.90;;;;;;;;;;1877173;75;21083;-84
2022/09/04 13:10:58;;;;;;;8.10;6.10;;;;;;;;;;1859980;75;21064;-85
2022/09/04 13:13:33;;;;;;;9.03;5.90;;;;;;;;;;1888440;75;21135;-84
2022/09/04 13:16:05;;;;;;;8.95;5.95;;;;;;;;;;1871953;76;21108;-84
2022/09/04 13:18:36;;;;;;;10.08;6.03;;;;;;;;;;1887264;75;21098;-84
2022/09/04 13:21:09;;;;;;;10.18;6.12;;;;;;;;;;1872773;74;21095;-85
2022/09/04 13:23:43;;;;;;;10.23;6.10;;;;;;;;;;1873758;75;21575;-86
2022/09/04 13:26:35;;;;;;;9.70;6.08;;;;;;;;;;1872832;75;21151;-84
2022/09/04 13:29:11;;;;;;;7.78;5.65;;;;;;;;;;1870287;75;21073;-84
2022/09/04 13:31:54;;;;;;;9.13;6.17;;;;;;;;;;1905735;73;21080;-84
2022/09/04 13:34:27;;;;;;;8.08;6.67;;;;;;;;;;1924058;74;21084;-85
2022/09/04 13:37:03;;;;;;;8.15;6.30;;;;;;;;;;1921821;73;21271;-87
2022/09/04 13:39:34;;;;;;;9.08;6.25;;;;;;;;;;1929352;73;21178;-81
2022/09/04 13:42:06;;;;;;;9.35;6.22;;;;;;;;;;1932194;73;21178;-83
2022/09/04 13:44:39;;;;;;;8.58;5.15;;;;;;;;;;1918449;73;21131;-84
2022/09/04 13:47:12;;;;;;;6.50;5.20;;;;;;;;;;1914634;73;21146;-83
2022/09/04 13:49:46;;;;;;;6.72;5.47;;;;;;;;;;1925276;73;21159;-82
2022/09/04 13:52:17;;;;;;;9.48;5.90;;;;;;;;;;1934728;73;21599;-83
2022/09/04 13:54:51;;;;;;;7.35;6.45;;;;;;;;;;1915706;73;21217;-82
2022/09/04 13:57:24;;;;;;;10.28;6.47;;;;;;;;;;1930729;73;21673;-83
2022/09/04 13:59:57;;;;;;;10.53;6.90;;;;;;;;;;1935314;73;21196;-83
2022/09/04 14:02:30;;;;;;;8.18;7.05;;;;;;;;;;1932312;73;21120;-83
2022/09/04 14:05:04;;;;;;;10.93;7.35;;;;;;;;;;1862687;75;21222;-84
2022/09/04 14:07:35;;;;;;;10.63;7.53;;;;;;;;;;1834007;76;21226;-83
2022/09/04 14:10:08;;;;;;;11.97;7.45;;;;;;;;;;1830186;77;21239;-83
2022/09/04 14:12:40;;;;;;;10.40;8.20;;;;;;;;;;1822961;76;21115;-82
2022/09/04 14:15:16;;;;;;;7.85;6.65;;;;;;;;;;1844829;76;21146;-83
2022/09/04 14:17:48;;;;;;;14.33;7.12;;;;;;;;;;1880104;75;21168;-83
2022/09/04 14:20:19;;;;;;;9.88;6.70;;;;;;;;;;1879909;75;21147;-84
2022/09/04 14:22:51;;;;;;;9.38;6.42;;;;;;;;;;1829620;76;21213;-84
2022/09/04 14:25:23;;;;;;;12.47;7.58;;;;;;;;;;1855918;75;21173;-82
2022/09/04 14:27:58;;;;;;;10.88;7.37;;;;;;;;;;1932151;73;21821;-83
2022/09/04 14:30:32;;;;;;;9.20;6.72;;;;;;;;;;1925933;73;21128;-83
2022/09/04 14:33:04;;;;;;;9.30;7.58;;;;;;;;;;1923565;73;21070;-82
2022/09/04 14:35:45;;;;;;;8.70;6.47;;;;;;;;;;1922766;73;21299;-83
2022/09/04 14:38:17;;;;;;;10.95;6.60;;;;;;;;;;1923523;73;21112;-83
2022/09/04 14:40:47;;;;;;;7.22;5.78;;;;;;;;;;1914124;73;21279;-84
2022/09/04 14:43:24;;;;;;;9.33;6.20;;;;;;;;;;1927075;73;21057;-83
2022/09/04 14:45:58;;;;;;;7.80;6.22;;;;;;;;;;1927052;73;21111;-83
2022/09/04 14:48:43;;;;;;;10.03;6.37;;;;;;;;;;1938176;73;21189;-81
2022/09/04 14:51:19;;;;;;;8.35;5.95;;;;;;;;;;1925846;72;21251;-82
2022/09/04 14:54:08;;;;;;;8.68;5.55;;;;;;;;;;1919289;73;21140;-83
2022/09/04 14:57:05;;;;;;;7.05;5.65;;;;;;;;;;1827070;76;21194;-82
2022/09/04 14:59:37;;;;;;;8.98;5.40;;;;;;;;;;1870799;74;21048;-83
2022/09/04 15:02:15;;;;;;;6.90;5.45;;;;;;;;;;1865324;76;21152;-80